Time;durP1;ratioP1;P1;durP2;ratioP2;P2;SDS_P1;SDS_P2;PMS_P1;PMS_P2;Temp;Humidity;BMP_temperature;BMP_pressure;BME280_temperature;BME280_humidity;BME280_pressure;Samples;Min_cycle;Max_cycle;Signal;HPM_P1;HPM_P2
2022/04/11 00:02:20;;;;;;;1.20;1.00;;;17.50;61.80;;;;;;5205166;28;20205;-64
2022/04/11 00:05:14;;;;;;;0.80;0.70;;;17.50;61.80;;;;;;5204598;28;20694;-64
2022/04/11 00:08:06;;;;;;;1.23;0.70;;;17.40;61.70;;;;;;5204650;28;20222;-64
2022/04/11 00:10:58;;;;;;;0.90;0.80;;;17.50;61.80;;;;;;5193278;28;20197;-64
2022/04/11 00:13:50;;;;;;;1.83;0.70;;;17.50;61.80;;;;;;5221911;28;20221;-64
2022/04/11 00:16:42;;;;;;;1.07;0.67;;;17.50;61.80;;;;;;5221869;28;20196;-64
2022/04/11 00:19:34;;;;;;;1.67;0.83;;;17.40;61.60;;;;;;5210963;28;20194;-64
2022/04/11 00:22:28;;;;;;;1.00;0.70;;;17.40;61.70;;;;;;5201332;28;20194;-64
2022/04/11 00:25:20;;;;;;;1.17;0.70;;;17.50;61.70;;;;;;5212754;28;20600;-65
2022/04/11 00:28:12;;;;;;;1.00;0.70;;;17.50;61.70;;;;;;5225860;28;20219;-64
2022/04/11 00:31:04;;;;;;;1.20;0.93;;;17.40;61.60;;;;;;5205777;28;20201;-64
2022/04/11 00:33:56;;;;;;;1.83;0.90;;;17.50;61.70;;;;;;5216261;28;20227;-65
2022/04/11 00:36:48;;;;;;;1.50;0.80;;;17.40;61.60;;;;;;5226543;28;20200;-64
2022/04/11 00:39:42;;;;;;;0.90;0.57;;;17.40;61.60;;;;;;5207667;28;20237;-64
2022/04/11 00:42:34;;;;;;;1.60;1.00;;;17.40;61.60;;;;;;5208280;28;20201;-64
2022/04/11 00:45:26;;;;;;;1.23;0.63;;;17.40;61.60;;;;;;5215143;28;20197;-64
2022/04/11 00:48:18;;;;;;;1.00;0.90;;;17.40;61.60;;;;;;5224694;28;20583;-64
2022/04/11 00:51:12;;;;;;;1.73;0.70;;;17.40;61.60;;;;;;5224779;28;20275;-64
2022/04/11 00:54:05;;;;;;;1.17;0.80;;;17.40;61.50;;;;;;5221093;28;20592;-64
2022/04/11 00:56:59;;;;;;;1.30;0.73;;;17.40;61.50;;;;;;5224628;28;20189;-64
2022/04/11 00:59:51;;;;;;;1.50;0.80;;;17.40;61.50;;;;;;5224734;28;20201;-63
2022/04/11 01:02:44;;;;;;;1.57;0.73;;;17.40;61.60;;;;;;5225180;28;20278;-64
2022/04/11 01:05:37;;;;;;;2.07;1.13;;;17.40;61.60;;;;;;5213913;28;20193;-64
2022/04/11 01:08:30;;;;;;;0.83;0.70;;;17.40;61.60;;;;;;5216928;28;20276;-64
2022/04/11 01:11:22;;;;;;;0.67;0.60;;;17.40;61.50;;;;;;5223697;28;20203;-64
2022/04/11 01:14:16;;;;;;;1.00;0.83;;;17.40;61.50;;;;;;5223965;28;20213;-64
2022/04/11 01:17:08;;;;;;;1.20;0.70;;;17.40;61.50;;;;;;5221455;28;20190;-65
2022/04/11 01:20:06;;;;;;;1.37;0.80;;;17.40;61.50;;;;;;5203858;28;20201;-64
2022/04/11 01:22:59;;;;;;;0.63;0.57;;;17.40;61.50;;;;;;5201468;28;20663;-65
2022/04/11 01:25:52;;;;;;;1.20;0.93;;;17.40;61.50;;;;;;5225156;28;20201;-64
2022/04/11 01:28:44;;;;;;;1.00;0.70;;;17.40;61.50;;;;;;5213097;28;20189;-65
2022/04/11 01:31:37;;;;;;;1.23;0.70;;;17.40;61.50;;;;;;5204059;28;20198;-64
2022/04/11 01:34:29;;;;;;;1.20;0.70;;;17.40;61.50;;;;;;5207538;28;20232;-64
2022/04/11 01:37:21;;;;;;;1.37;1.00;;;17.40;61.40;;;;;;5212122;28;20203;-64
2022/04/11 01:40:14;;;;;;;0.50;0.50;;;17.40;61.40;;;;;;5223956;28;20196;-64
2022/04/11 01:43:06;;;;;;;0.73;0.60;;;17.40;61.40;;;;;;5206888;28;20214;-64
2022/04/11 01:45:58;;;;;;;1.40;0.90;;;17.40;61.40;;;;;;5204102;28;20204;-64
2022/04/11 01:48:50;;;;;;;1.33;0.80;;;17.40;61.40;;;;;;5182561;28;20198;-64
2022/04/11 01:51:43;;;;;;;0.60;0.60;;;17.40;61.40;;;;;;5214784;28;20190;-64
2022/04/11 01:54:35;;;;;;;1.00;0.60;;;17.40;61.40;;;;;;5224155;28;20213;-64
2022/04/11 01:57:28;;;;;;;0.67;0.50;;;17.40;61.40;;;;;;5224268;28;20201;-63
2022/04/11 02:00:20;;;;;;;0.87;0.70;;;17.40;61.30;;;;;;5211774;28;20205;-64
2022/04/11 02:03:13;;;;;;;1.93;0.70;;;17.40;61.30;;;;;;5208869;28;20220;-64
2022/04/11 02:06:05;;;;;;;1.03;0.60;;;17.40;61.30;;;;;;5204615;28;20190;-64
2022/04/11 02:08:57;;;;;;;1.03;0.70;;;17.40;61.40;;;;;;5222578;28;20220;-64
2022/04/11 02:11:49;;;;;;;1.77;0.87;;;17.40;61.40;;;;;;5222754;28;20202;-64
2022/04/11 02:14:43;;;;;;;2.57;0.90;;;17.40;61.40;;;;;;5204014;28;20237;-64
2022/04/11 02:17:35;;;;;;;0.90;0.60;;;17.40;61.40;;;;;;5203661;28;20198;-65
2022/04/11 02:20:27;;;;;;;1.20;0.77;;;17.40;61.30;;;;;;5220276;28;20197;-64
2022/04/11 02:23:19;;;;;;;1.20;0.57;;;17.40;61.40;;;;;;5202795;28;20205;-65
2022/04/11 02:26:11;;;;;;;0.87;0.60;;;17.40;61.40;;;;;;5218803;28;20672;-64
2022/04/11 02:29:03;;;;;;;1.17;0.80;;;17.40;61.40;;;;;;5223583;28;20213;-64
2022/04/11 02:31:57;;;;;;;0.80;0.60;;;17.40;61.30;;;;;;5183438;28;20186;-64
2022/04/11 02:34:49;;;;;;;0.97;0.70;;;17.40;61.30;;;;;;5211089;28;20224;-64
2022/04/11 02:37:41;;;;;;;0.60;0.60;;;17.40;61.30;;;;;;5218497;28;20205;-64
2022/04/11 02:40:33;;;;;;;1.43;0.80;;;17.40;61.30;;;;;;5202916;28;20212;-64
2022/04/11 02:43:25;;;;;;;0.73;0.60;;;17.40;61.30;;;;;;5202207;28;20562;-64
2022/04/11 02:46:17;;;;;;;1.03;0.67;;;17.40;61.30;;;;;;5202245;28;20220;-64
2022/04/11 02:49:11;;;;;;;1.87;0.63;;;17.40;61.20;;;;;;5209979;28;20193;-65
2022/04/11 02:52:04;;;;;;;1.20;0.80;;;17.40;61.30;;;;;;5214922;28;20845;-66
2022/04/11 02:54:56;;;;;;;0.93;0.63;;;17.40;61.30;;;;;;5203209;28;20200;-65
2022/04/11 02:57:48;;;;;;;1.87;0.60;;;17.40;61.20;;;;;;5202109;28;20283;-65
2022/04/11 03:00:41;;;;;;;1.00;0.60;;;17.40;61.30;;;;;;5207479;28;20191;-65
2022/04/11 03:03:33;;;;;;;0.87;0.70;;;17.40;61.20;;;;;;5223065;28;20216;-65
2022/04/11 03:06:26;;;;;;;0.93;0.83;;;17.40;61.20;;;;;;5216434;28;20193;-63
2022/04/11 03:09:18;;;;;;;0.93;0.80;;;17.40;61.20;;;;;;5203406;28;20194;-65
2022/04/11 03:12:11;;;;;;;0.57;0.50;;;17.40;61.20;;;;;;5204424;28;20205;-65
2022/04/11 03:15:04;;;;;;;0.80;0.50;;;17.40;61.20;;;;;;5222217;28;20204;-64
2022/04/11 03:17:56;;;;;;;0.70;0.60;;;17.40;61.20;;;;;;5219278;28;20651;-64
2022/04/11 03:20:48;;;;;;;1.10;0.60;;;17.40;61.20;;;;;;5214503;28;20676;-65
2022/04/11 03:23:41;;;;;;;0.87;0.73;;;17.40;61.20;;;;;;5222399;28;20213;-64
2022/04/11 03:26:33;;;;;;;0.53;0.43;;;17.40;61.20;;;;;;5221253;28;20194;-64
2022/04/11 03:29:25;;;;;;;0.50;0.47;;;17.40;61.20;;;;;;5208554;28;20649;-65
2022/04/11 03:32:18;;;;;;;0.90;0.50;;;17.40;61.10;;;;;;5214282;28;20668;-64
2022/04/11 03:35:10;;;;;;;0.80;0.60;;;17.40;61.10;;;;;;5204860;28;20194;-64
2022/04/11 03:38:02;;;;;;;0.50;0.50;;;17.40;61.10;;;;;;5221450;28;20272;-64
2022/04/11 03:40:55;;;;;;;0.50;0.40;;;17.40;61.10;;;;;;5217872;28;20224;-65
2022/04/11 03:43:48;;;;;;;0.50;0.50;;;17.40;61.10;;;;;;5210812;28;20566;-64
2022/04/11 03:46:40;;;;;;;0.73;0.70;;;17.40;61.10;;;;;;5202476;28;20201;-64
2022/04/11 03:49:32;;;;;;;0.97;0.50;;;17.40;61.10;;;;;;5201568;28;20194;-64
2022/04/11 03:52:24;;;;;;;1.03;0.63;;;17.40;61.10;;;;;;5181199;28;20665;-64
2022/04/11 03:55:16;;;;;;;0.73;0.50;;;17.40;61.00;;;;;;5182727;28;20187;-64
2022/04/11 03:58:10;;;;;;;1.57;0.60;;;17.50;61.10;;;;;;5188808;28;20287;-64
2022/04/11 04:01:02;;;;;;;0.53;0.40;;;17.50;61.00;;;;;;5200939;28;20584;-65
2022/04/11 04:03:54;;;;;;;0.80;0.57;;;17.40;61.00;;;;;;5225910;28;20296;-63
2022/04/11 04:06:46;;;;;;;0.77;0.60;;;17.50;61.00;;;;;;5218840;28;20584;-64
2022/04/11 04:09:38;;;;;;;0.40;0.40;;;17.50;61.00;;;;;;5209846;28;20577;-64
2022/04/11 04:12:30;;;;;;;1.40;0.73;;;17.50;61.00;;;;;;5212125;28;20276;-64
2022/04/11 04:15:24;;;;;;;1.07;0.67;;;17.50;61.00;;;;;;5197644;28;20194;-64
2022/04/11 04:18:16;;;;;;;0.97;0.80;;;17.50;61.00;;;;;;5206120;28;20270;-64
2022/04/11 04:21:08;;;;;;;1.03;0.60;;;17.50;61.00;;;;;;5217448;28;20276;-65
2022/04/11 04:24:00;;;;;;;0.93;0.60;;;17.50;61.00;;;;;;5226398;28;20231;-64
2022/04/11 04:26:52;;;;;;;0.93;0.60;;;17.50;61.00;;;;;;5220789;28;20201;-64
2022/04/11 04:29:44;;;;;;;0.60;0.60;;;17.50;61.00;;;;;;5213325;28;20205;-64
2022/04/11 04:32:38;;;;;;;1.27;0.87;;;17.50;61.00;;;;;;5219313;28;20244;-64
2022/04/11 04:35:30;;;;;;;1.20;0.60;;;17.50;61.00;;;;;;5204815;28;20688;-65
2022/04/11 04:38:22;;;;;;;0.90;0.60;;;17.50;61.00;;;;;;5206127;28;20202;-64
2022/04/11 04:41:14;;;;;;;0.50;0.47;;;17.50;61.00;;;;;;5208866;28;20193;-64
2022/04/11 04:44:07;;;;;;;0.50;0.50;;;17.50;61.00;;;;;;5213034;28;20600;-65
2022/04/11 04:46:59;;;;;;;0.83;0.50;;;17.50;60.90;;;;;;5204708;28;20193;-64
2022/04/11 04:49:52;;;;;;;0.73;0.57;;;17.50;61.00;;;;;;5225135;28;20201;-63
2022/04/11 04:52:44;;;;;;;0.77;0.57;;;17.50;60.90;;;;;;5208897;28;20214;-64
2022/04/11 04:55:36;;;;;;;0.90;0.70;;;17.50;60.90;;;;;;5205064;28;20193;-63
2022/04/11 04:58:28;;;;;;;0.50;0.50;;;17.50;60.90;;;;;;5205187;28;20697;-64
2022/04/11 05:01:20;;;;;;;0.77;0.60;;;17.50;60.90;;;;;;5205994;28;20448;-64
2022/04/11 05:04:13;;;;;;;1.37;0.63;;;17.50;60.90;;;;;;5226818;28;20221;-64
2022/04/11 05:07:06;;;;;;;2.00;0.40;;;17.50;60.90;;;;;;5211007;28;20197;-64
2022/04/11 05:09:58;;;;;;;0.50;0.40;;;17.50;60.90;;;;;;5215955;28;20200;-64
2022/04/11 05:12:50;;;;;;;0.67;0.67;;;17.50;60.90;;;;;;5205480;28;20885;-64
2022/04/11 05:15:46;;;;;;;0.70;0.50;;;17.50;60.90;;;;;;5213886;28;20720;-64
2022/04/11 05:18:38;;;;;;;1.47;0.63;;;17.50;60.90;;;;;;5205564;28;20186;-64
2022/04/11 05:21:30;;;;;;;0.93;0.50;;;17.50;60.90;;;;;;5203938;28;20194;-64
2022/04/11 05:24:23;;;;;;;0.87;0.43;;;17.50;60.80;;;;;;5205145;28;20372;-64
2022/04/11 05:27:15;;;;;;;0.80;0.50;;;17.50;60.90;;;;;;5206257;28;20186;-64
2022/04/11 05:30:09;;;;;;;0.80;0.50;;;17.50;60.90;;;;;;5212478;28;20194;-66
2022/04/11 05:33:01;;;;;;;0.40;0.40;;;17.50;60.90;;;;;;5225283;28;20229;-67
2022/04/11 05:35:53;;;;;;;1.70;0.70;;;17.50;60.90;;;;;;5208688;28;20200;-65
2022/04/11 05:38:45;;;;;;;0.87;0.57;;;17.50;60.90;;;;;;5211343;28;20189;-66
2022/04/11 05:41:39;;;;;;;0.67;0.50;;;17.50;60.90;;;;;;5212505;28;20693;-66
2022/04/11 05:44:31;;;;;;;1.17;0.53;;;17.50;60.90;;;;;;5204349;28;20239;-67
2022/04/11 05:47:23;;;;;;;1.20;0.67;;;17.50;60.90;;;;;;5203253;28;20665;-66
2022/04/11 05:50:15;;;;;;;0.83;0.40;;;17.50;60.90;;;;;;5212993;28;20312;-66
2022/04/11 05:53:07;;;;;;;0.50;0.50;;;17.50;60.90;;;;;;5202826;28;20319;-65
2022/04/11 05:55:59;;;;;;;1.57;0.50;;;17.50;60.90;;;;;;5201990;28;20769;-66
2022/04/11 05:58:53;;;;;;;1.43;0.70;;;17.50;60.90;;;;;;5224348;28;20600;-65
2022/04/11 06:01:45;;;;;;;1.23;0.50;;;17.50;60.90;;;;;;5215097;28;20231;-65
2022/04/11 06:04:37;;;;;;;0.90;0.40;;;17.50;60.90;;;;;;5202871;28;20206;-65
2022/04/11 06:07:32;;;;;;;0.53;0.47;;;17.50;60.90;;;;;;5202598;28;20190;-66
2022/04/11 06:10:24;;;;;;;0.43;0.43;;;17.50;60.90;;;;;;5203448;28;20198;-65
2022/04/11 06:13:16;;;;;;;0.53;0.43;;;17.50;60.90;;;;;;5201630;28;20348;-65
2022/04/11 06:16:10;;;;;;;0.87;0.60;;;17.50;60.90;;;;;;5202833;28;20194;-66
2022/04/11 06:19:02;;;;;;;0.83;0.60;;;17.50;60.90;;;;;;5204116;28;20575;-63
2022/04/11 06:21:54;;;;;;;0.67;0.60;;;17.50;60.80;;;;;;5214008;28;20294;-61
2022/04/11 06:24:46;;;;;;;0.70;0.60;;;17.50;60.60;;;;;;5214945;28;20682;-62
2022/04/11 06:27:38;;;;;;;1.03;0.60;;;17.50;60.70;;;;;;5203898;28;20204;-62
2022/04/11 06:30:31;;;;;;;0.37;0.37;;;17.40;60.70;;;;;;5203214;28;20367;-62
2022/04/11 06:33:24;;;;;;;1.53;0.53;;;17.40;60.80;;;;;;5206520;28;20871;-62
2022/04/11 06:36:16;;;;;;;0.40;0.40;;;17.40;60.80;;;;;;5215557;28;20270;-61
2022/04/11 06:39:08;;;;;;;1.47;0.50;;;17.40;60.90;;;;;;5209074;28;20727;-61
2022/04/11 06:42:01;;;;;;;0.70;0.50;;;17.40;61.00;;;;;;5222224;28;20661;-64
2022/04/11 06:44:53;;;;;;;1.20;0.70;;;17.40;61.00;;;;;;5222117;28;20193;-60
2022/04/11 06:47:47;;;;;;;1.63;0.40;;;17.40;61.00;;;;;;5222632;28;20201;-62
2022/04/11 06:50:42;;;;;;;1.33;0.70;;;17.40;61.10;;;;;;5216671;28;20236;-62
2022/04/11 06:53:34;;;;;;;0.77;0.70;;;17.30;61.00;;;;;;5220841;28;20714;-61
2022/04/11 06:56:26;;;;;;;1.57;0.80;;;17.30;61.00;;;;;;5191235;28;20190;-63
2022/04/11 06:59:19;;;;;;;0.77;0.50;;;17.30;61.10;;;;;;5201130;28;20200;-61
2022/04/11 07:02:11;;;;;;;0.53;0.53;;;17.30;61.70;;;;;;5220303;28;20193;-62
2022/04/11 07:05:04;;;;;;;0.50;0.40;;;17.30;61.10;;;;;;5221990;28;20284;-61
2022/04/11 07:07:58;;;;;;;0.90;0.50;;;17.30;61.40;;;;;;5202859;28;20194;-61
2022/04/11 07:10:50;;;;;;;1.27;0.50;;;17.30;61.10;;;;;;5203181;28;20569;-62
2022/04/11 07:13:42;;;;;;;1.03;0.70;;;17.30;61.20;;;;;;5215783;28;20213;-63
2022/04/11 07:16:34;;;;;;;0.80;0.50;;;17.30;61.20;;;;;;5214240;28;20204;-61
2022/04/11 07:19:26;;;;;;;1.07;0.70;;;17.30;61.20;;;;;;5201663;28;20198;-63
2022/04/11 07:22:21;;;;;;;0.50;0.50;;;17.30;61.20;;;;;;5209122;28;20538;-60
2022/04/11 07:25:14;;;;;;;1.20;0.60;;;17.30;61.20;;;;;;5200855;28;20190;-62
2022/04/11 07:28:07;;;;;;;1.20;0.80;;;17.30;61.20;;;;;;5200284;28;20206;-62
2022/04/11 07:30:59;;;;;;;0.57;0.47;;;17.30;61.20;;;;;;5204313;28;20271;-64
2022/04/11 07:33:51;;;;;;;0.47;0.40;;;17.30;61.20;;;;;;5173558;28;1063458;-63
2022/04/11 07:36:43;;;;;;;0.73;0.50;;;17.30;61.20;;;;;;5223390;28;20258;-62
2022/04/11 07:39:36;;;;;;;0.60;0.50;;;17.30;61.20;;;;;;5205335;28;20196;-65
2022/04/11 07:42:29;;;;;;;0.50;0.40;;;17.30;61.40;;;;;;5205402;28;20193;-65
2022/04/11 07:45:21;;;;;;;0.70;0.47;;;17.30;61.50;;;;;;5205601;28;20209;-62
2022/04/11 07:48:13;;;;;;;1.00;0.70;;;17.30;61.50;;;;;;5205945;28;20206;-62
2022/04/11 07:51:06;;;;;;;0.50;0.40;;;17.40;61.50;;;;;;5192379;28;20198;-61
2022/04/11 07:53:58;;;;;;;1.50;0.60;;;17.40;61.50;;;;;;5206122;28;20213;-61
2022/04/11 07:56:50;;;;;;;0.50;0.40;;;17.40;61.40;;;;;;5194862;28;20205;-62
2022/04/11 07:59:43;;;;;;;0.80;0.60;;;17.40;61.40;;;;;;5205781;28;20200;-62
2022/04/11 08:02:35;;;;;;;1.43;0.70;;;17.40;61.40;;;;;;5196643;28;20201;-62
2022/04/11 08:05:27;;;;;;;0.60;0.40;;;17.40;61.40;;;;;;5205795;28;20201;-62
2022/04/11 08:08:19;;;;;;;1.00;0.50;;;17.40;61.40;;;;;;5203702;28;20697;-61
2022/04/11 08:11:12;;;;;;;1.07;0.60;;;17.40;61.40;;;;;;5198098;28;20193;-61
2022/04/11 08:14:04;;;;;;;0.57;0.37;;;17.40;61.40;;;;;;5185815;28;20231;-61
2022/04/11 08:17:02;;;;;;;2.60;0.80;;;17.40;61.40;;;;;;5186685;28;20198;-60
2022/04/11 08:19:54;;;;;;;0.57;0.43;;;17.40;61.50;;;;;;5189994;28;20194;-61
2022/04/11 08:22:47;;;;;;;1.33;0.60;;;17.40;61.50;;;;;;5184057;28;20301;-61
2022/04/11 08:25:41;;;;;;;1.80;0.70;;;17.40;61.50;;;;;;5201374;28;20198;-63
2022/04/11 08:28:33;;;;;;;0.70;0.40;;;17.40;61.60;;;;;;5205292;28;20343;-62
2022/04/11 08:31:26;;;;;;;0.90;0.50;;;17.40;61.60;;;;;;5196430;28;20556;-62
2022/04/11 08:34:19;;;;;;;0.70;0.50;;;17.40;61.60;;;;;;5213379;28;20247;-62
2022/04/11 08:37:11;;;;;;;0.97;0.50;;;17.40;61.70;;;;;;5208981;28;20198;-61
2022/04/11 08:40:04;;;;;;;5.40;0.50;;;17.40;61.70;;;;;;5208513;28;20265;-62
2022/04/11 08:42:56;;;;;;;0.63;0.40;;;17.30;61.70;;;;;;5205685;28;20705;-62
2022/04/11 08:45:49;;;;;;;0.50;0.50;;;17.40;61.70;;;;;;5195891;28;20191;-62
2022/04/11 08:48:43;;;;;;;2.23;0.70;;;17.40;61.70;;;;;;5205309;28;20288;-62
2022/04/11 08:51:37;;;;;;;3.90;0.70;;;17.40;61.70;;;;;;5216194;28;20193;-61
2022/04/11 08:54:30;;;;;;;1.23;0.53;;;17.40;61.70;;;;;;5208641;28;20217;-62
2022/04/11 08:57:23;;;;;;;1.00;0.60;;;17.40;61.60;;;;;;5205556;28;20290;-61
2022/04/11 09:00:17;;;;;;;0.40;0.40;;;17.30;61.50;;;;;;5204098;28;20205;-61
2022/04/11 09:03:09;;;;;;;1.20;0.60;;;17.30;61.50;;;;;;5204479;28;20218;-61
2022/04/11 09:06:07;;;;;;;0.57;0.40;;;17.30;61.50;;;;;;5203772;28;20285;-61
2022/04/11 09:09:00;;;;;;;0.30;0.30;;;17.40;61.60;;;;;;5202406;28;20640;-62
2022/04/11 09:11:53;;;;;;;0.77;0.47;;;17.40;61.60;;;;;;5201655;28;20693;-62
2022/04/11 09:14:51;;;;;;;1.47;0.57;;;17.30;61.60;;;;;;5200910;28;20218;-62
2022/04/11 09:17:44;;;;;;;0.63;0.40;;;17.30;61.60;;;;;;5201700;28;20209;-61
2022/04/11 09:20:36;;;;;;;0.97;0.50;;;17.40;61.70;;;;;;5201902;28;20202;-61
2022/04/11 09:23:28;;;;;;;1.10;0.30;;;17.40;61.80;;;;;;5201805;28;20229;-63
2022/04/11 09:26:23;;;;;;;0.80;0.60;;;17.30;61.70;;;;;;5202368;28;20197;-63
2022/04/11 09:29:16;;;;;;;0.47;0.37;;;17.40;61.90;;;;;;5205430;28;20209;-63
2022/04/11 09:32:09;;;;;;;0.80;0.30;;;17.40;62.00;;;;;;5222045;28;20197;-64
2022/04/11 09:35:01;;;;;;;1.33;0.47;;;17.40;62.70;;;;;;5218545;28;20668;-62
2022/04/11 09:38:10;;;;;;;0.70;0.47;;;17.40;62.10;;;;;;5201391;28;20193;-63
2022/04/11 09:41:02;;;;;;;0.97;0.50;;;17.40;62.10;;;;;;5200554;28;20186;-62
2022/04/11 09:43:57;;;;;;;0.63;0.43;;;17.40;62.00;;;;;;5200100;28;20269;-64
2022/04/11 09:46:49;;;;;;;0.87;0.60;;;17.50;62.10;;;;;;5181528;28;20278;-63
2022/04/11 09:49:42;;;;;;;0.57;0.50;;;17.50;62.00;;;;;;5194907;28;20329;-63
2022/04/11 09:52:35;;;;;;;1.03;0.40;;;17.50;62.00;;;;;;5200299;28;20195;-64
2022/04/11 09:55:27;;;;;;;1.83;0.50;;;17.50;62.00;;;;;;5199945;28;20202;-64
2022/04/11 09:58:20;;;;;;;1.23;0.60;;;17.50;62.00;;;;;;5208745;28;20596;-63
2022/04/11 10:01:15;;;;;;;1.30;0.60;;;17.50;62.00;;;;;;5209692;28;20628;-62
2022/04/11 10:04:08;;;;;;;3.33;0.50;;;17.50;62.00;;;;;;5224689;28;20584;-63
2022/04/11 10:07:00;;;;;;;1.83;0.50;;;17.50;62.10;;;;;;5220321;28;20286;-63
2022/04/11 10:09:54;;;;;;;0.40;0.40;;;17.50;62.10;;;;;;5210219;28;20278;-63
2022/04/11 10:12:46;;;;;;;1.27;0.47;;;17.50;62.10;;;;;;5211732;28;20724;-63
2022/04/11 10:15:39;;;;;;;0.63;0.33;;;17.50;62.10;;;;;;5203599;28;20205;-63
2022/04/11 10:18:33;;;;;;;1.80;0.53;;;17.50;62.10;;;;;;5206657;28;20208;-63
2022/04/11 10:21:25;;;;;;;3.33;0.63;;;17.50;62.10;;;;;;5216052;28;20442;-63
2022/04/11 10:24:25;;;;;;;0.63;0.30;;;17.50;62.00;;;;;;5219039;28;20268;-63
2022/04/11 10:27:23;;;;;;;0.93;0.37;;;17.60;62.00;;;;;;5202284;28;20194;-63
2022/04/11 10:30:28;;;;;;;1.20;0.50;;;17.50;62.00;;;;;;5203628;28;20796;-63
2022/04/11 10:33:41;;;;;;;0.50;0.40;;;17.60;62.00;;;;;;5203446;28;20231;-63
2022/04/11 10:36:35;;;;;;;3.60;0.70;;;17.60;62.00;;;;;;5204096;28;20541;-65
2022/04/11 10:39:29;;;;;;;0.23;0.23;;;17.50;61.90;;;;;;5202464;28;20845;-64
2022/04/11 10:42:24;;;;;;;1.27;0.50;;;17.60;62.00;;;;;;5205381;28;20328;-65
2022/04/11 10:45:29;;;;;;;1.50;0.60;;;17.60;62.00;;;;;;5208508;28;20225;-64
2022/04/11 10:48:24;;;;;;;1.07;0.50;;;17.50;62.50;;;;;;5203946;28;20201;-65
2022/04/11 10:51:17;;;;;;;0.50;0.30;;;17.60;62.00;;;;;;5202879;28;20279;-64
2022/04/11 10:54:17;;;;;;;1.23;0.50;;;17.60;61.90;;;;;;5201817;28;20727;-64
2022/04/11 10:57:10;;;;;;;0.93;0.40;;;17.60;61.90;;;;;;5202386;28;20205;-64
2022/04/11 11:00:07;;;;;;;0.50;0.50;;;17.60;61.90;;;;;;5201867;28;20557;-64
2022/04/11 11:03:04;;;;;;;1.67;0.50;;;17.60;61.90;;;;;;5203176;28;20240;-63
2022/04/11 11:06:17;;;;;;;0.50;0.47;;;17.60;61.90;;;;;;5201742;28;20665;-63
2022/04/11 11:09:16;;;;;;;1.63;0.50;;;17.60;61.70;;;;;;5203691;28;20209;-62
2022/04/11 11:12:20;;;;;;;1.03;0.40;;;17.60;61.60;;;;;;5202235;28;20205;-64
2022/04/11 11:15:27;;;;;;;0.83;0.40;;;17.50;61.80;;;;;;5203368;28;20193;-64
2022/04/11 11:18:20;;;;;;;2.10;0.40;;;17.60;61.90;;;;;;5200279;28;20569;-64
2022/04/11 11:21:12;;;;;;;1.70;0.50;;;17.60;61.90;;;;;;5200868;28;20190;-64
2022/04/11 11:24:12;;;;;;;0.30;0.30;;;17.60;61.90;;;;;;5206768;28;20295;-63
2022/04/11 11:27:06;;;;;;;1.13;0.60;;;17.50;61.80;;;;;;5222931;28;20723;-64
2022/04/11 11:29:58;;;;;;;0.47;0.40;;;17.50;61.80;;;;;;5200920;28;20233;-64
2022/04/11 11:32:50;;;;;;;0.33;0.20;;;17.50;61.80;;;;;;5200850;28;20705;-64
2022/04/11 11:35:51;;;;;;;0.93;0.40;;;17.60;61.90;;;;;;5201335;28;20197;-63
2022/04/11 11:38:43;;;;;;;0.53;0.33;;;17.60;61.90;;;;;;5215250;28;20189;-63
2022/04/11 11:41:37;;;;;;;0.80;0.40;;;17.60;61.80;;;;;;5222502;28;20193;-63
2022/04/11 11:44:30;;;;;;;1.93;0.60;;;17.60;61.80;;;;;;5217220;28;20222;-63
2022/04/11 11:47:27;;;;;;;0.67;0.37;;;17.50;61.80;;;;;;5206877;28;20194;-63
2022/04/11 11:50:20;;;;;;;3.27;0.60;;;17.50;61.80;;;;;;5202482;28;20617;-63
2022/04/11 11:53:13;;;;;;;1.20;0.60;;;17.50;61.90;;;;;;5191071;28;20218;-61
2022/04/11 11:56:07;;;;;;;0.70;0.47;;;17.50;62.00;;;;;;5200729;28;20589;-62
2022/04/11 11:59:01;;;;;;;0.93;0.60;;;17.50;62.00;;;;;;5182698;28;20566;-61
2022/04/11 12:04:18;;;;;;;1.93;0.63;;;17.50;62.10;;;;;;5205740;28;20198;-62
2022/04/11 12:05:15;;;;;;;1.40;0.40;;;17.50;62.20;;;;;;5202217;28;20190;-61
2022/04/11 12:08:17;;;;;;;1.77;0.80;;;17.50;62.10;;;;;;5184320;28;20620;-62
2022/04/11 12:11:10;;;;;;;2.10;0.50;;;17.50;62.20;;;;;;5199125;28;20216;-66
2022/04/11 12:14:05;;;;;;;2.13;0.70;;;17.50;62.20;;;;;;5209445;28;20213;-63
2022/04/11 12:17:00;;;;;;;1.83;1.10;;;17.50;62.30;;;;;;5221822;28;20272;-64
2022/04/11 12:19:52;;;;;;;2.35;1.40;;;17.50;59.30;;;;;;5217755;28;20429;-63
2022/04/11 12:23:00;;;;;;;2.85;1.40;;;17.40;53.00;;;;;;5204682;28;20505;-63
2022/04/11 12:25:54;;;;;;;3.30;1.60;;;17.50;47.60;;;;;;5204984;28;20320;-62
2022/04/11 12:28:46;;;;;;;3.37;1.40;;;17.40;47.20;;;;;;5205230;28;20202;-64
2022/04/11 12:31:40;;;;;;;2.37;1.50;;;17.30;46.40;;;;;;5206151;28;20228;-64
2022/04/11 12:34:33;;;;;;;3.40;1.60;;;17.20;45.40;;;;;;5205686;28;20218;-64
2022/04/11 12:37:26;;;;;;;2.30;1.20;;;17.10;43.20;;;;;;5221961;28;20619;-63
2022/04/11 12:40:19;;;;;;;2.67;1.37;;;17.00;43.40;;;;;;5212038;28;20196;-64
2022/04/11 12:43:11;;;;;;;2.07;1.30;;;17.00;43.20;;;;;;5224258;28;20764;-63
2022/04/11 12:46:06;;;;;;;4.37;1.70;;;16.90;42.80;;;;;;5211201;28;20254;-61
2022/04/11 12:49:01;;;;;;;4.10;1.47;;;16.90;42.60;;;;;;5226210;28;20201;-64
2022/04/11 12:51:59;;;;;;;3.67;1.47;;;16.90;42.40;;;;;;5224792;28;20204;-64
2022/04/11 12:54:53;;;;;;;2.60;1.40;;;16.80;42.50;;;;;;5207551;28;20550;-63
2022/04/11 12:57:46;;;;;;;3.67;1.53;;;16.80;42.90;;;;;;5198294;28;20264;-63
2022/04/11 13:00:40;;;;;;;5.07;1.57;;;16.90;43.30;;;;;;5215597;28;20196;-63
2022/04/11 13:03:32;;;;;;;2.70;1.80;;;16.90;43.30;;;;;;5224952;28;20219;-63
2022/04/11 13:06:25;;;;;;;3.50;1.30;;;16.80;42.60;;;;;;5204136;28;20240;-63
2022/04/11 13:09:18;;;;;;;2.70;1.60;;;16.80;42.10;;;;;;5198662;28;20309;-64
2022/04/11 13:12:11;;;;;;;2.70;1.27;;;16.80;41.90;;;;;;5203976;28;20192;-64
2022/04/11 13:15:04;;;;;;;3.03;1.50;;;16.80;41.50;;;;;;5205578;28;20332;-62
2022/04/11 13:21:05;;;;;;;2.77;1.20;;;16.80;42.90;;;;;;5185270;28;20653;-64
2022/04/11 13:23:59;;;;;;;4.93;1.63;;;16.80;43.10;;;;;;5197783;28;20703;-64
2022/04/11 13:26:51;;;;;;;3.60;1.33;;;16.80;42.70;;;;;;5205236;28;20225;-65
2022/04/11 13:29:43;;;;;;;2.43;1.40;;;16.80;42.30;;;;;;5206709;28;20190;-63
2022/04/11 13:32:36;;;;;;;4.77;1.83;;;16.80;42.20;;;;;;5203355;28;20665;-64
2022/04/11 13:35:28;;;;;;;3.03;1.30;;;16.80;41.90;;;;;;5203556;28;20198;-64
2022/04/11 13:38:20;;;;;;;3.30;1.40;;;16.80;41.90;;;;;;5204165;28;20193;-63
2022/04/11 13:41:14;;;;;;;2.63;1.43;;;16.80;42.20;;;;;;5195522;28;20198;-63
2022/04/11 13:44:06;;;;;;;1.97;1.10;;;16.80;42.50;;;;;;5194595;28;20218;-64
2022/04/11 13:46:58;;;;;;;2.63;1.40;;;16.80;43.10;;;;;;5204167;28;20194;-63
2022/04/11 13:49:50;;;;;;;2.30;1.30;;;16.80;43.50;;;;;;5204319;28;20194;-63
2022/04/11 13:52:42;;;;;;;2.57;1.00;;;16.80;43.40;;;;;;5203636;28;20661;-63
2022/04/11 13:55:35;;;;;;;4.00;1.40;;;16.90;44.30;;;;;;5203147;28;20581;-64
2022/04/11 13:58:28;;;;;;;4.07;1.10;;;16.90;44.60;;;;;;5208425;28;20190;-65
2022/04/11 14:01:20;;;;;;;1.97;1.10;;;16.90;44.90;;;;;;5202501;28;20201;-63
2022/04/11 14:04:13;;;;;;;1.23;0.73;;;16.90;45.30;;;;;;5211466;28;20288;-63
2022/04/11 14:07:05;;;;;;;1.97;0.60;;;16.90;46.20;;;;;;5218270;28;20791;-60
2022/04/11 14:09:57;;;;;;;2.87;0.80;;;16.90;47.10;;;;;;5224762;28;20203;-62
2022/04/11 14:12:50;;;;;;;2.50;0.90;;;17.00;47.60;;;;;;5223238;28;20221;-62
2022/04/11 14:15:43;;;;;;;1.80;0.60;;;17.00;48.00;;;;;;5218525;28;20387;-61
2022/04/11 14:18:35;;;;;;;1.77;0.60;;;17.00;48.40;;;;;;5224020;28;20205;-62
2022/04/11 14:21:28;;;;;;;1.77;0.57;;;17.00;48.90;;;;;;5222797;28;20410;-61
2022/04/11 14:24:20;;;;;;;0.93;0.70;;;17.00;49.30;;;;;;5223771;28;20219;-61
2022/04/11 14:27:12;;;;;;;0.80;0.40;;;17.00;49.70;;;;;;5224353;28;20276;-62
2022/04/11 14:30:05;;;;;;;1.93;0.70;;;17.00;50.10;;;;;;5219165;28;20198;-61
2022/04/11 14:32:58;;;;;;;0.73;0.60;;;17.00;50.40;;;;;;5202997;28;20739;-61
2022/04/11 14:35:51;;;;;;;1.87;0.50;;;17.00;50.70;;;;;;5203890;28;20189;-61
2022/04/11 14:38:43;;;;;;;0.87;0.50;;;17.10;51.00;;;;;;5182390;28;20205;-61
2022/04/11 14:41:35;;;;;;;3.70;0.90;;;17.10;51.30;;;;;;5181527;28;20191;-63
2022/04/11 14:44:27;;;;;;;1.27;0.40;;;17.00;51.50;;;;;;5197262;28;20224;-61
2022/04/11 14:47:19;;;;;;;2.10;0.63;;;17.00;51.70;;;;;;5204013;28;20343;-61
2022/04/11 14:50:12;;;;;;;1.23;0.47;;;17.10;51.90;;;;;;5205081;28;20206;-63
2022/04/11 14:53:05;;;;;;;0.90;0.60;;;17.10;52.10;;;;;;5222633;28;20212;-62
2022/04/11 14:55:58;;;;;;;0.87;0.40;;;17.10;52.30;;;;;;5223985;28;20672;-62
2022/04/11 14:58:50;;;;;;;0.70;0.43;;;17.10;52.50;;;;;;5223134;28;20213;-62
2022/04/11 15:01:42;;;;;;;0.90;0.40;;;17.10;52.60;;;;;;5223715;28;20219;-63
2022/04/11 15:04:34;;;;;;;0.83;0.30;;;17.10;52.80;;;;;;5205743;28;20214;-63
2022/04/11 15:07:28;;;;;;;0.90;0.30;;;17.10;52.90;;;;;;5202527;28;20206;-61